• Join FlightAware (Why Join?)
  • Login
  • US Flag 
10:06PM EDT


 

Airport Tracker/Info


-or-


 

Live Flight TrackerFlight Track Log ✈ CTL13 ✈ 22-Apr-2013 ✈ KMDW - KGRR

Flight Track Log - Related Links

Times and Time Zones

All times are in EDT time to prevent confusion due to time zone crossing. See the CTL13 flight status page for this flight to view local times or setup timezone preferences in your user account.

Time Position Orientation Groundspeed Altitude Reporting Facility
EDT Latitude Longitude Course Direction KTS MPH feet Rate Location/Type
10:39PM 41.7833 -87.7000 93° East 125 144 2,000  Level Chicago TRACON
10:40PM 41.7833 -87.6500 90° East 131 151 3,000 900 Climbing Chicago TRACON
10:41PM 41.8000 -87.6000 66° East 151 174 3,900 480 Climbing Chicago TRACON
10:42PM 41.8167 -87.5500 66° East 186 214 4,000  Climbing Chicago TRACON
10:43PM 41.8500 -87.5000 48° Northeast 193 222 3,900 -60 Descending Chicago TRACON
10:44PM 41.7793 -87.3742 93° East  Level FlightAware Approximate
10:44PM 41.8833 -87.4333 56° Northeast 192 221 3,900  Level Chicago TRACON
10:46PM 41.9417 -87.3397 50° Northeast 155 178 5,600 600 Climbing Chicago Center
10:47PM 41.9731 -87.2814 54° Northeast 162 186 5,900 120 Climbing Chicago Center
10:48PM 42.0042 -87.2222 55° Northeast 191 220 5,900  Level Chicago Center
10:49PM 42.0356 -87.1633 54° Northeast 195 224 5,900  Level Chicago Center
10:50PM 42.0689 -87.1050 52° Northeast 198 228 5,900  Level Chicago Center
10:51PM 42.1022 -87.0394 56° Northeast 197 227 6,000 480 Climbing Chicago Center
10:52PM 42.1308 -86.9839 55° Northeast 180 207 7,000 480 Climbing Chicago Center
10:53PM 42.1592 -86.9317 54° Northeast 174 200 7,100  Climbing Chicago Center
10:54PM 42.1903 -86.8742 54° Northeast 188 216 7,000 -60 Descending Chicago Center
10:55PM 42.2186 -86.8194 55° Northeast 180 207 7,000  Level Chicago Center
10:56PM 42.2450 -86.7706 54° Northeast 165 190 7,000  Level Chicago Center
10:57PM 42.2694 -86.7189 57° Northeast 164 189 7,000  Level Chicago Center
10:58PM 42.2947 -86.6689 56° Northeast 162 186 7,000  Level Chicago Center
10:59PM 42.3189 -86.6206 56° Northeast 163 188 7,000  Level Chicago Center
11:00PM 42.3511 -86.5578 55° Northeast 170 196 7,000  Level Chicago Center
11:01PM 42.3778 -86.5075 54° Northeast 167 192 7,000  Level Chicago Center
11:02PM 42.4028 -86.4586 55° Northeast 162 186 7,000  Level Chicago Center
11:03PM 42.4275 -86.4067 57° Northeast 163 188 7,000  Level Chicago Center
11:04PM 42.4525 -86.3564 56° Northeast 163 188 7,000  Level Chicago Center
11:05PM 42.4781 -86.3058 56° Northeast 163 188 7,000  Level Chicago Center
11:06PM 42.5042 -86.2561 55° Northeast 163 188 7,000  Level Chicago Center
11:07PM 42.5303 -86.2067 54° Northeast 163 188 7,000  Level Chicago Center
11:08PM 42.5561 -86.1572 55° Northeast 161 185 7,000  Level Chicago Center
11:09PM 42.5831 -86.1061 54° Northeast 165 190 7,000  Level Chicago Center
11:10PM 42.6136 -86.0458 55° Northeast 165 190 7,000  Level Chicago Center
11:11PM 42.6394 -85.9947 55° Northeast 164 189 7,000 -240 Level Chicago Center
11:12PM 42.6669 -85.9431 54° Northeast 168 193 6,600 -600 Descending Chicago Center
11:13PM 42.6981 -85.8875 53° Northeast 179 206 5,900 -660 Descending Chicago Center
11:14PM 42.7311 -85.8272 53° Northeast 194 223 5,300 -840 Descending Chicago Center
11:15PM 42.7664 -85.7625 53° Northeast 208 239 4,300 -1,140 Descending Chicago Center
11:16PM 42.8008 -85.6969 54° Northeast 214 246 3,100 -1,140 Descending Chicago Center
11:17PM 42.8378 -85.6397 49° Northeast 209 241 2,100 -600 Descending Chicago Center
11:18PM 42.8669 -85.5914 51° Northeast 189 217 1,900 -540 Descending Chicago Center
11:19PM 42.8758 -85.5511 73° East 143 165 1,100 -840 Descending Chicago Center
11:21PM 42.8667 -85.5167 56° Northeast  Level FlightAware Approximate
11:28PM 42.8808 -85.5228 56° Northeast  Level Estimated